createdAt,value
2018-07-31T00:00:24.478Z,21.04
2018-07-31T00:02:51.655Z,20.98
2018-07-31T00:05:18.855Z,20.94
2018-07-31T00:07:46.016Z,20.88
2018-07-31T00:10:13.219Z,20.86
2018-07-31T00:12:40.455Z,20.83
2018-07-31T00:15:08.943Z,20.80
2018-07-31T00:17:36.117Z,20.75
2018-07-31T00:20:03.698Z,20.70
2018-07-31T00:22:31.165Z,20.67
2018-07-31T00:24:58.591Z,20.64
2018-07-31T00:27:26.244Z,20.59
2018-07-31T00:29:53.463Z,20.55
2018-07-31T00:32:20.705Z,20.51
2018-07-31T00:34:49.960Z,20.44
2018-07-31T00:37:17.118Z,20.42
2018-07-31T00:39:44.307Z,20.41
2018-07-31T00:42:11.617Z,20.38
2018-07-31T00:44:38.758Z,20.35
2018-07-31T00:47:05.939Z,20.35
2018-07-31T00:49:33.306Z,20.35
2018-07-31T00:52:00.820Z,20.37
2018-07-31T00:54:28.319Z,20.33
2018-07-31T00:56:55.888Z,20.28
2018-07-31T00:59:23.015Z,20.26
2018-07-31T01:01:50.192Z,20.25
2018-07-31T01:04:17.465Z,20.25
2018-07-31T01:06:44.685Z,20.28
2018-07-31T01:09:13.063Z,20.31
2018-07-31T01:11:40.429Z,20.30
2018-07-31T01:14:08.403Z,20.26
2018-07-31T01:16:36.089Z,20.20
2018-07-31T01:19:03.787Z,20.16
2018-07-31T01:21:31.108Z,20.13
2018-07-31T01:23:58.425Z,20.14
2018-07-31T01:26:26.370Z,20.10
2018-07-31T01:28:53.513Z,20.04
2018-07-31T01:31:20.812Z,20.05
2018-07-31T01:33:48.063Z,20.01
2018-07-31T01:36:15.214Z,19.98
2018-07-31T01:38:42.339Z,19.97
2018-07-31T01:41:09.645Z,19.94
2018-07-31T01:43:36.828Z,19.90
2018-07-31T01:46:04.153Z,19.86
2018-07-31T01:48:31.604Z,19.83
2018-07-31T01:50:58.897Z,19.84
2018-07-31T01:53:26.340Z,19.83
2018-07-31T01:55:53.729Z,19.82
2018-07-31T01:58:20.928Z,19.81
2018-07-31T02:00:48.048Z,19.77
2018-07-31T02:03:15.216Z,19.76
2018-07-31T02:05:42.424Z,19.72
2018-07-31T02:08:09.721Z,19.69
2018-07-31T02:10:37.048Z,19.67
2018-07-31T02:13:04.187Z,19.63
2018-07-31T02:15:31.626Z,19.61
2018-07-31T02:17:59.199Z,19.59
2018-07-31T02:20:26.756Z,19.55
2018-07-31T02:22:54.271Z,19.51
2018-07-31T02:25:22.628Z,19.52
2018-07-31T02:27:49.787Z,19.56
2018-07-31T02:30:19.898Z,19.51
2018-07-31T02:32:51.541Z,19.50
2018-07-31T02:35:18.728Z,19.48
2018-07-31T02:37:45.880Z,19.45
2018-07-31T02:40:13.560Z,19.42
2018-07-31T02:42:40.778Z,19.40
2018-07-31T02:45:09.986Z,19.37
2018-07-31T02:47:37.219Z,19.30
2018-07-31T02:50:04.935Z,19.27
2018-07-31T02:52:32.339Z,19.22
2018-07-31T02:54:59.836Z,19.19
2018-07-31T02:57:27.327Z,19.15
2018-07-31T02:59:54.899Z,19.15
2018-07-31T03:02:22.573Z,19.11
2018-07-31T03:04:49.746Z,19.06
2018-07-31T03:07:17.915Z,19.00
2018-07-31T03:09:45.082Z,18.97
2018-07-31T03:12:12.245Z,18.97
2018-07-31T03:14:39.391Z,18.95
2018-07-31T03:17:06.550Z,18.95
2018-07-31T03:19:33.786Z,18.96
2018-07-31T03:22:01.192Z,18.90
2018-07-31T03:24:28.710Z,18.82
2018-07-31T03:26:56.208Z,18.90
2018-07-31T03:29:24.228Z,18.96
2018-07-31T03:31:52.170Z,18.97
2018-07-31T03:34:19.507Z,18.96
2018-07-31T03:36:46.660Z,18.98
2018-07-31T03:39:13.888Z,18.98
2018-07-31T03:41:40.991Z,18.99
2018-07-31T03:44:08.195Z,19.03
2018-07-31T03:46:35.415Z,19.03
2018-07-31T03:49:02.971Z,19.02
2018-07-31T03:51:30.312Z,19.02
2018-07-31T03:53:57.768Z,18.99
2018-07-31T03:56:25.054Z,18.99
2018-07-31T03:58:52.683Z,18.97
2018-07-31T04:01:19.905Z,18.99
2018-07-31T04:03:47.081Z,19.02
2018-07-31T04:06:14.291Z,19.07
2018-07-31T04:08:41.418Z,19.09
2018-07-31T04:11:08.508Z,19.13
2018-07-31T04:13:35.669Z,19.14
2018-07-31T04:16:02.881Z,19.18
2018-07-31T04:18:30.164Z,19.27
2018-07-31T04:20:57.537Z,19.29
2018-07-31T04:23:25.087Z,19.31
2018-07-31T04:25:52.219Z,19.38
2018-07-31T04:28:19.400Z,19.41
2018-07-31T04:30:46.534Z,19.50
2018-07-31T04:33:13.688Z,19.52
2018-07-31T04:35:40.852Z,19.58
2018-07-31T04:38:07.985Z,19.61
2018-07-31T04:40:35.168Z,19.64
2018-07-31T04:43:02.355Z,19.70
2018-07-31T04:45:29.552Z,19.77
2018-07-31T04:47:56.722Z,19.85
2018-07-31T04:50:24.021Z,19.90
2018-07-31T04:52:51.293Z,19.98
2018-07-31T04:55:18.604Z,20.04
2018-07-31T04:57:46.198Z,20.14
2018-07-31T05:00:13.473Z,20.26
2018-07-31T05:02:40.610Z,20.36
2018-07-31T05:05:08.362Z,20.56
2018-07-31T05:07:37.289Z,20.71
2018-07-31T05:10:06.202Z,20.93
2018-07-31T05:12:33.479Z,21.13
2018-07-31T05:15:01.278Z,21.33
2018-07-31T05:17:28.614Z,21.42
2018-07-31T05:19:57.094Z,21.61
2018-07-31T05:22:24.817Z,21.75
2018-07-31T05:24:53.160Z,21.87
2018-07-31T05:27:21.129Z,22.04
2018-07-31T05:29:50.185Z,22.14
2018-07-31T05:32:18.139Z,22.28
2018-07-31T05:34:46.735Z,22.36
2018-07-31T05:37:15.430Z,22.55
2018-07-31T05:39:43.070Z,22.70
2018-07-31T05:42:10.552Z,22.82
2018-07-31T05:44:38.203Z,22.98
2018-07-31T05:47:05.535Z,23.08
2018-07-31T05:49:33.273Z,23.24
2018-07-31T05:52:00.849Z,23.34
2018-07-31T05:54:29.265Z,23.46
2018-07-31T05:56:56.759Z,23.54
2018-07-31T05:59:24.363Z,23.72
2018-07-31T06:01:52.563Z,23.91
2018-07-31T06:04:22.691Z,24.10
2018-07-31T06:06:50.842Z,24.29
2018-07-31T06:09:19.786Z,24.44
2018-07-31T06:11:47.803Z,24.65
2018-07-31T06:14:17.515Z,24.77
2018-07-31T06:16:46.833Z,24.98
2018-07-31T06:19:15.235Z,25.10
2018-07-31T06:21:42.547Z,25.26
2018-07-31T06:24:10.225Z,25.33
2018-07-31T06:26:38.865Z,25.42
2018-07-31T06:29:05.985Z,25.46
2018-07-31T06:31:33.485Z,25.57
2018-07-31T06:34:00.894Z,25.71
2018-07-31T06:36:28.085Z,25.89
2018-07-31T06:38:55.656Z,26.07
2018-07-31T06:41:23.034Z,26.21
2018-07-31T06:43:50.532Z,26.32
2018-07-31T06:46:18.377Z,26.43
2018-07-31T06:48:46.653Z,26.48
2018-07-31T06:51:14.092Z,26.60
2018-07-31T06:53:41.327Z,26.81
2018-07-31T06:56:08.516Z,26.87
2018-07-31T06:58:35.682Z,26.90
2018-07-31T07:01:03.013Z,26.97
2018-07-31T07:03:30.369Z,27.17
2018-07-31T07:05:57.629Z,27.29
2018-07-31T07:08:25.998Z,27.41
2018-07-31T07:10:53.427Z,27.48
2018-07-31T07:13:21.308Z,27.63
2018-07-31T07:15:49.352Z,27.80
2018-07-31T07:18:16.977Z,28.09
2018-07-31T07:20:44.818Z,28.28
2018-07-31T07:23:12.158Z,28.38
2018-07-31T07:25:39.315Z,28.32
2018-07-31T07:28:06.566Z,28.49
2018-07-31T07:30:33.857Z,28.59
2018-07-31T07:33:00.983Z,28.71
2018-07-31T07:35:28.286Z,28.77
2018-07-31T07:37:55.784Z,28.85
2018-07-31T07:40:23.097Z,28.99
2018-07-31T07:42:50.517Z,29.20
2018-07-31T07:45:18.459Z,29.36
2018-07-31T07:47:46.404Z,29.52
2018-07-31T07:50:14.016Z,29.56
2018-07-31T07:52:41.369Z,29.68
2018-07-31T07:55:08.644Z,29.63
2018-07-31T07:57:36.011Z,29.90
2018-07-31T08:00:04.789Z,30.17
2018-07-31T08:02:31.911Z,30.12
2018-07-31T08:04:59.410Z,30.16
2018-07-31T08:07:26.667Z,30.33
2018-07-31T08:09:54.176Z,30.61
2018-07-31T08:12:21.656Z,30.66
2018-07-31T08:14:49.376Z,30.88
2018-07-31T08:17:17.512Z,31.09
2018-07-31T08:19:45.196Z,31.22
2018-07-31T08:22:13.289Z,31.46
2018-07-31T08:24:40.548Z,31.47
2018-07-31T08:27:07.976Z,31.65
2018-07-31T08:29:36.012Z,31.60
2018-07-31T08:32:03.331Z,31.67
2018-07-31T08:34:31.046Z,31.70
2018-07-31T08:36:58.345Z,31.65
2018-07-31T08:39:25.704Z,31.96
2018-07-31T08:41:53.351Z,31.77
2018-07-31T08:44:21.035Z,31.75
2018-07-31T08:46:48.533Z,31.91
2018-07-31T08:49:16.257Z,31.97
2018-07-31T08:51:44.175Z,32.10
2018-07-31T08:54:11.446Z,32.18
2018-07-31T08:56:38.700Z,32.14
2018-07-31T08:59:06.004Z,32.39
2018-07-31T09:01:33.205Z,32.43
2018-07-31T09:04:00.438Z,32.81
2018-07-31T09:06:27.612Z,32.89
2018-07-31T09:08:55.285Z,32.82
2018-07-31T09:11:22.778Z,32.99
2018-07-31T09:13:50.206Z,33.51
2018-07-31T09:16:18.069Z,33.46
2018-07-31T09:18:46.094Z,33.72
2018-07-31T09:21:13.579Z,33.51
2018-07-31T09:23:41.038Z,33.46
2018-07-31T09:26:08.317Z,33.79
2018-07-31T09:28:35.583Z,33.76
2018-07-31T09:31:10.487Z,33.94
2018-07-31T09:33:37.653Z,34.20
2018-07-31T09:36:04.955Z,34.22
2018-07-31T09:38:32.174Z,34.21
2018-07-31T09:40:59.479Z,34.03
2018-07-31T09:43:26.844Z,34.15
2018-07-31T09:45:54.439Z,34.47
2018-07-31T09:48:22.128Z,34.70
2018-07-31T09:50:49.774Z,34.85
2018-07-31T09:53:17.635Z,34.86
2018-07-31T09:55:46.105Z,35.08
2018-07-31T09:58:13.540Z,34.91
2018-07-31T10:00:46.510Z,35.12
2018-07-31T10:03:13.923Z,35.05
2018-07-31T10:05:41.107Z,35.24
2018-07-31T10:08:08.552Z,35.25
2018-07-31T10:10:35.848Z,35.60
2018-07-31T10:13:03.020Z,36.14
2018-07-31T10:15:30.325Z,36.38
2018-07-31T10:17:57.611Z,35.90
2018-07-31T10:20:25.050Z,36.23
2018-07-31T10:22:52.811Z,35.78
2018-07-31T10:25:20.947Z,36.02
2018-07-31T10:27:48.634Z,36.14
2018-07-31T10:30:16.295Z,36.07
2018-07-31T10:32:43.747Z,36.00
2018-07-31T10:35:11.380Z,36.07
2018-07-31T10:37:38.978Z,36.26
2018-07-31T10:40:06.736Z,36.31
2018-07-31T10:42:33.910Z,36.44
2018-07-31T10:45:01.186Z,36.79
2018-07-31T10:47:28.407Z,36.01
2018-07-31T10:49:55.807Z,35.91
2018-07-31T10:52:23.616Z,36.25
2018-07-31T10:54:51.270Z,36.67
2018-07-31T10:57:18.685Z,36.46
2018-07-31T10:59:46.843Z,36.82
2018-07-31T11:02:14.963Z,36.77
2018-07-31T11:04:42.128Z,36.60
2018-07-31T11:07:09.743Z,36.83
2018-07-31T11:09:36.865Z,37.02
2018-07-31T11:12:04.068Z,37.92
2018-07-31T11:14:31.248Z,38.33
2018-07-31T11:16:58.376Z,38.80
2018-07-31T11:19:25.587Z,37.45
2018-07-31T11:21:53.658Z,37.93
2018-07-31T11:24:21.355Z,38.30
2018-07-31T11:26:48.836Z,37.85
2018-07-31T11:29:16.570Z,38.12
2018-07-31T11:31:45.250Z,38.41
2018-07-31T11:34:12.648Z,39.39
2018-07-31T11:36:39.889Z,39.22
2018-07-31T11:39:08.880Z,39.80
2018-07-31T11:41:36.452Z,39.03
2018-07-31T11:44:03.679Z,38.65
2018-07-31T11:46:31.042Z,39.78
2018-07-31T11:48:58.168Z,39.75
2018-07-31T11:51:25.362Z,39.82
2018-07-31T11:53:53.198Z,39.19
2018-07-31T11:56:20.728Z,38.62
2018-07-31T11:58:48.131Z,38.80
2018-07-31T12:01:16.128Z,38.99
2018-07-31T12:03:43.792Z,39.15
2018-07-31T12:06:11.113Z,39.54
2018-07-31T12:08:38.532Z,39.54
2018-07-31T12:11:05.818Z,39.25
2018-07-31T12:13:32.951Z,38.23
2018-07-31T12:16:00.327Z,37.43
2018-07-31T12:18:27.544Z,37.39
2018-07-31T12:20:55.169Z,37.70
2018-07-31T12:23:22.536Z,36.78
2018-07-31T12:25:50.139Z,37.09
2018-07-31T12:28:18.008Z,37.13
2018-07-31T12:30:46.908Z,36.26
2018-07-31T12:33:15.172Z,36.40
2018-07-31T12:35:42.303Z,36.21
2018-07-31T12:38:09.530Z,35.55
2018-07-31T12:40:36.848Z,35.42
2018-07-31T12:43:03.979Z,35.40
2018-07-31T12:45:31.155Z,35.39
2018-07-31T12:47:58.323Z,35.27
2018-07-31T12:50:25.811Z,35.40
2018-07-31T12:52:53.448Z,35.49
2018-07-31T12:55:20.992Z,35.28
2018-07-31T12:57:48.772Z,35.13
2018-07-31T13:00:16.509Z,35.18
2018-07-31T13:02:44.829Z,35.10
2018-07-31T13:05:12.027Z,35.21
2018-07-31T13:07:39.287Z,35.00
2018-07-31T13:10:06.486Z,35.15
2018-07-31T13:12:33.644Z,35.15
2018-07-31T13:15:00.808Z,34.94
2018-07-31T13:17:27.983Z,35.05
2018-07-31T13:19:55.208Z,35.10
2018-07-31T13:22:22.709Z,34.93
2018-07-31T13:24:50.373Z,35.08
2018-07-31T13:27:17.899Z,35.08
2018-07-31T13:29:45.739Z,35.12
2018-07-31T13:32:13.927Z,35.32
2018-07-31T13:34:41.152Z,35.44
2018-07-31T13:37:08.892Z,35.63
2018-07-31T13:39:36.149Z,35.19
2018-07-31T13:42:08.945Z,35.04
2018-07-31T13:44:36.169Z,34.94
2018-07-31T13:47:03.460Z,34.77
2018-07-31T13:49:30.646Z,34.71
2018-07-31T13:51:57.916Z,34.77
2018-07-31T13:54:25.141Z,34.91
2018-07-31T13:56:52.631Z,34.96
2018-07-31T13:59:20.181Z,35.16
2018-07-31T14:01:47.972Z,35.03
2018-07-31T14:04:15.793Z,35.36
2018-07-31T14:06:43.148Z,35.38
2018-07-31T14:09:10.936Z,34.86
2018-07-31T14:11:38.153Z,34.76
2018-07-31T14:14:05.357Z,35.00
2018-07-31T14:16:32.830Z,35.19
2018-07-31T14:18:59.992Z,35.14
2018-07-31T14:21:27.180Z,35.26
2018-07-31T14:23:54.465Z,35.26
2018-07-31T14:26:21.828Z,35.56
2018-07-31T14:28:49.288Z,35.48
2018-07-31T14:31:17.200Z,35.65
2018-07-31T14:33:45.251Z,35.23
2018-07-31T14:36:12.527Z,35.33
2018-07-31T14:38:39.743Z,35.23
2018-07-31T14:41:07.054Z,35.27
2018-07-31T14:43:34.249Z,35.65
2018-07-31T14:46:01.364Z,35.44
2018-07-31T14:48:28.544Z,35.94
2018-07-31T14:50:55.777Z,36.20
2018-07-31T14:53:23.164Z,36.16
2018-07-31T14:55:50.441Z,36.00
2018-07-31T14:58:18.062Z,35.81
2018-07-31T15:00:45.557Z,35.77
2018-07-31T15:03:12.858Z,35.38
2018-07-31T15:05:40.132Z,35.31
2018-07-31T15:08:07.320Z,35.30
2018-07-31T15:10:34.738Z,35.52
2018-07-31T15:13:02.154Z,36.08
2018-07-31T15:15:29.334Z,35.82
2018-07-31T15:17:57.272Z,35.63
2018-07-31T15:20:24.601Z,35.83
2018-07-31T15:22:51.818Z,36.23
2018-07-31T15:25:19.176Z,36.39
2018-07-31T15:27:46.596Z,36.78
2018-07-31T15:30:14.103Z,36.75
2018-07-31T15:32:41.841Z,36.22
2018-07-31T15:35:09.049Z,35.76
2018-07-31T15:37:36.173Z,35.28
2018-07-31T15:40:03.721Z,35.30
2018-07-31T15:42:31.293Z,35.72
2018-07-31T15:44:58.399Z,36.08
2018-07-31T15:47:25.522Z,35.59
2018-07-31T15:49:52.801Z,35.30
2018-07-31T15:52:20.312Z,35.72
2018-07-31T15:54:47.732Z,35.72
2018-07-31T15:57:15.383Z,36.08
2018-07-31T15:59:43.239Z,35.55
2018-07-31T16:02:10.820Z,35.19
2018-07-31T16:04:38.084Z,35.08
2018-07-31T16:07:05.346Z,34.68
2018-07-31T16:09:32.535Z,34.65
2018-07-31T16:12:00.938Z,34.56
2018-07-31T16:14:28.081Z,34.77
2018-07-31T16:16:55.211Z,34.72
2018-07-31T16:19:22.899Z,34.70
2018-07-31T16:21:50.524Z,34.48
2018-07-31T16:24:18.206Z,34.65
2018-07-31T16:26:45.807Z,34.44
2018-07-31T16:29:13.455Z,34.38
2018-07-31T16:31:40.781Z,34.46
2018-07-31T16:34:08.059Z,34.37
2018-07-31T16:36:35.165Z,34.43
2018-07-31T16:39:02.368Z,34.52
2018-07-31T16:41:29.669Z,34.16
2018-07-31T16:43:56.851Z,34.19
2018-07-31T16:46:23.999Z,34.13
2018-07-31T16:48:51.403Z,34.13
2018-07-31T16:51:18.743Z,33.94
2018-07-31T16:53:46.225Z,33.97
2018-07-31T16:56:14.885Z,33.79
2018-07-31T16:58:42.689Z,33.70
2018-07-31T17:01:10.158Z,33.75
2018-07-31T17:03:37.732Z,33.62
2018-07-31T17:06:05.445Z,33.45
2018-07-31T17:08:32.978Z,33.45
2018-07-31T17:11:00.322Z,33.30
2018-07-31T17:13:27.480Z,33.10
2018-07-31T17:15:54.591Z,32.82
2018-07-31T17:18:21.870Z,32.82
2018-07-31T17:20:49.098Z,32.66
2018-07-31T17:23:16.207Z,32.62
2018-07-31T17:25:43.417Z,32.46
2018-07-31T17:28:10.648Z,32.45
2018-07-31T17:30:37.882Z,32.30
2018-07-31T17:33:05.055Z,32.06
2018-07-31T17:35:32.852Z,32.09
2018-07-31T17:38:00.506Z,31.89
2018-07-31T17:40:28.303Z,31.45
2018-07-31T17:42:56.567Z,31.43
2018-07-31T17:45:24.513Z,31.41
2018-07-31T17:47:51.719Z,31.12
2018-07-31T17:50:18.876Z,31.00
2018-07-31T17:52:46.180Z,30.82
2018-07-31T17:55:14.237Z,30.63
2018-07-31T17:57:41.449Z,30.47
2018-07-31T18:00:08.592Z,30.29
2018-07-31T18:02:35.808Z,30.10
2018-07-31T18:05:03.363Z,29.97
2018-07-31T18:07:31.059Z,29.83
2018-07-31T18:09:59.119Z,29.69
2018-07-31T18:12:26.350Z,29.56
2018-07-31T18:14:53.516Z,29.41
2018-07-31T18:17:20.708Z,29.11
2018-07-31T18:19:47.962Z,29.20
2018-07-31T18:22:15.147Z,29.13
2018-07-31T18:24:50.170Z,29.10
2018-07-31T18:27:17.393Z,29.01
2018-07-31T18:29:44.589Z,28.92
2018-07-31T18:32:12.333Z,28.78
2018-07-31T18:34:39.834Z,28.66
2018-07-31T18:37:07.535Z,28.58
2018-07-31T18:39:35.663Z,28.45
2018-07-31T18:42:03.580Z,28.31
2018-07-31T18:44:31.203Z,28.21
2018-07-31T18:46:58.659Z,28.09
2018-07-31T18:49:26.618Z,27.93
2018-07-31T18:51:54.873Z,27.80
2018-07-31T18:54:22.339Z,27.69
2018-07-31T18:56:49.508Z,27.57
2018-07-31T18:59:16.954Z,27.47
2018-07-31T19:01:44.946Z,27.36
2018-07-31T19:04:12.114Z,27.24
2018-07-31T19:06:40.262Z,27.17
2018-07-31T19:09:11.155Z,27.07
2018-07-31T19:11:39.144Z,26.96
2018-07-31T19:14:06.669Z,26.87
2018-07-31T19:16:34.787Z,26.79
2018-07-31T19:19:02.595Z,26.70
2018-07-31T19:21:30.554Z,26.60
2018-07-31T19:23:58.002Z,26.53
2018-07-31T19:26:25.240Z,26.44
2018-07-31T19:28:52.385Z,26.36
2018-07-31T19:31:19.570Z,26.29
2018-07-31T19:33:46.843Z,26.22
2018-07-31T19:36:14.048Z,26.16
2018-07-31T19:38:41.478Z,26.12
2018-07-31T19:41:08.958Z,26.10
2018-07-31T19:43:37.093Z,26.05
2018-07-31T19:46:05.611Z,26.00
2018-07-31T19:48:33.681Z,25.95
2018-07-31T19:51:01.690Z,25.94
2018-07-31T19:53:29.288Z,25.91
2018-07-31T19:55:56.445Z,25.84
2018-07-31T19:58:23.656Z,25.77
2018-07-31T20:00:51.476Z,25.73
2018-07-31T20:03:18.609Z,25.67
2018-07-31T20:05:45.747Z,25.64
2018-07-31T20:08:12.937Z,25.60
2018-07-31T20:10:40.164Z,25.57
2018-07-31T20:13:07.566Z,25.48
2018-07-31T20:15:34.997Z,25.42
2018-07-31T20:18:02.882Z,25.36
2018-07-31T20:20:30.771Z,25.34
2018-07-31T20:22:58.079Z,25.28
2018-07-31T20:25:25.355Z,25.24
2018-07-31T20:27:52.467Z,25.18
2018-07-31T20:30:19.635Z,25.12
2018-07-31T20:32:47.666Z,25.07
2018-07-31T20:35:15.055Z,25.04
2018-07-31T20:37:42.316Z,24.98
2018-07-31T20:40:09.700Z,24.92
2018-07-31T20:42:37.325Z,24.86
2018-07-31T20:45:04.832Z,24.79
2018-07-31T20:47:32.495Z,24.75
2018-07-31T20:50:01.234Z,24.69
2018-07-31T20:52:28.612Z,24.63
2018-07-31T20:54:55.923Z,24.58
2018-07-31T20:57:23.068Z,24.53
2018-07-31T20:59:50.400Z,24.50
2018-07-31T21:02:17.581Z,24.44
2018-07-31T21:04:44.724Z,24.38
2018-07-31T21:07:11.917Z,24.35
2018-07-31T21:09:39.183Z,24.33
2018-07-31T21:12:06.691Z,24.32
2018-07-31T21:14:34.256Z,24.28
2018-07-31T21:17:01.905Z,24.26
2018-07-31T21:19:29.290Z,24.24
2018-07-31T21:21:56.541Z,24.20
2018-07-31T21:24:23.739Z,24.18
2018-07-31T21:26:50.941Z,24.15
2018-07-31T21:29:18.128Z,24.12
2018-07-31T21:31:45.292Z,24.09
2018-07-31T21:34:12.433Z,24.06
2018-07-31T21:36:40.131Z,24.07
2018-07-31T21:39:09.900Z,24.04
2018-07-31T21:41:37.361Z,24.01
2018-07-31T21:44:04.764Z,23.98
2018-07-31T21:46:32.522Z,23.92
2018-07-31T21:49:00.774Z,23.87
2018-07-31T21:51:28.209Z,23.82
2018-07-31T21:53:55.448Z,23.79
2018-07-31T21:56:22.602Z,23.75
2018-07-31T21:58:49.795Z,23.72
2018-07-31T22:01:17.069Z,23.69
2018-07-31T22:03:44.259Z,23.65
2018-07-31T22:06:11.438Z,23.62
2018-07-31T22:08:38.596Z,23.61
2018-07-31T22:11:05.825Z,23.61
2018-07-31T22:13:33.054Z,23.58
2018-07-31T22:16:00.260Z,23.54
2018-07-31T22:18:27.505Z,23.53
2018-07-31T22:20:55.033Z,23.55
2018-07-31T22:23:22.376Z,23.53
2018-07-31T22:25:50.460Z,23.47
2018-07-31T22:28:18.193Z,23.42
2018-07-31T22:30:45.387Z,23.41
2018-07-31T22:33:12.505Z,23.36
2018-07-31T22:35:39.827Z,23.35
2018-07-31T22:38:07.016Z,23.32
2018-07-31T22:40:34.219Z,23.28
2018-07-31T22:43:01.408Z,23.27
2018-07-31T22:45:28.759Z,23.26
2018-07-31T22:47:56.351Z,23.26
2018-07-31T22:50:23.866Z,23.22
2018-07-31T22:52:51.499Z,23.18
2018-07-31T22:55:19.364Z,23.19
2018-07-31T22:57:46.729Z,23.17
2018-07-31T23:00:13.960Z,23.13
2018-07-31T23:02:41.161Z,23.14
2018-07-31T23:05:10.244Z,23.11
2018-07-31T23:07:37.667Z,23.09
2018-07-31T23:10:04.847Z,23.05
2018-07-31T23:12:32.566Z,23.03
2018-07-31T23:15:00.959Z,22.99
2018-07-31T23:17:29.028Z,22.96
2018-07-31T23:19:58.145Z,22.93
2018-07-31T23:22:38.159Z,22.93
2018-07-31T23:25:05.999Z,22.95
2018-07-31T23:27:33.549Z,23.05
2018-07-31T23:30:00.797Z,23.11
2018-07-31T23:32:28.531Z,23.08
2018-07-31T23:34:55.967Z,23.07
2018-07-31T23:37:23.400Z,23.06
2018-07-31T23:39:52.172Z,23.07
2018-07-31T23:42:20.117Z,23.01
2018-07-31T23:44:47.902Z,22.98
2018-07-31T23:47:15.098Z,22.97
2018-07-31T23:49:42.288Z,22.92
2018-07-31T23:52:09.520Z,22.88
2018-07-31T23:54:36.691Z,22.87
2018-07-31T23:57:03.836Z,22.82
2018-07-31T23:59:30.973Z,22.79
